sensor_id;sensor_type;location;lat;lon;timestamp;P1;durP1;ratioP1;P2;durP2;ratioP2
6665;SDS011;3369;49.906;8.598;2023-03-31T00:01:25;5.30;;;1.83;;
6665;SDS011;3369;49.906;8.598;2023-03-31T00:03:51;3.47;;;1.80;;
6665;SDS011;3369;49.906;8.598;2023-03-31T00:06:26;3.67;;;1.50;;
6665;SDS011;3369;49.906;8.598;2023-03-31T00:08:52;5.10;;;1.70;;
6665;SDS011;3369;49.906;8.598;2023-03-31T00:11:18;2.37;;;1.30;;
6665;SDS011;3369;49.906;8.598;2023-03-31T00:13:45;3.70;;;1.43;;
6665;SDS011;3369;49.906;8.598;2023-03-31T00:16:11;2.90;;;1.70;;
6665;SDS011;3369;49.906;8.598;2023-03-31T00:18:37;2.37;;;1.60;;
6665;SDS011;3369;49.906;8.598;2023-03-31T00:21:12;2.80;;;1.23;;
6665;SDS011;3369;49.906;8.598;2023-03-31T00:23:48;3.77;;;1.30;;
6665;SDS011;3369;49.906;8.598;2023-03-31T00:26:15;3.23;;;1.40;;
6665;SDS011;3369;49.906;8.598;2023-03-31T00:28:41;2.80;;;1.40;;
6665;SDS011;3369;49.906;8.598;2023-03-31T00:31:06;2.67;;;1.40;;
6665;SDS011;3369;49.906;8.598;2023-03-31T00:33:32;3.73;;;1.43;;
6665;SDS011;3369;49.906;8.598;2023-03-31T00:35:57;6.87;;;2.00;;
6665;SDS011;3369;49.906;8.598;2023-03-31T00:38:26;2.53;;;1.67;;
6665;SDS011;3369;49.906;8.598;2023-03-31T00:40:54;5.13;;;1.70;;
6665;SDS011;3369;49.906;8.598;2023-03-31T00:48:40;2.23;;;1.43;;
6665;SDS011;3369;49.906;8.598;2023-03-31T00:51:11;2.37;;;1.40;;
6665;SDS011;3369;49.906;8.598;2023-03-31T00:53:38;3.93;;;1.67;;
6665;SDS011;3369;49.906;8.598;2023-03-31T00:56:06;3.57;;;1.73;;
6665;SDS011;3369;49.906;8.598;2023-03-31T00:58:36;2.93;;;1.47;;
6665;SDS011;3369;49.906;8.598;2023-03-31T01:01:07;3.37;;;1.30;;
6665;SDS011;3369;49.906;8.598;2023-03-31T01:03:38;3.53;;;1.67;;
6665;SDS011;3369;49.906;8.598;2023-03-31T01:06:06;5.77;;;1.70;;
6665;SDS011;3369;49.906;8.598;2023-03-31T01:43:47;2.43;;;1.50;;
6665;SDS011;3369;49.906;8.598;2023-03-31T01:49:21;4.43;;;2.07;;
6665;SDS011;3369;49.906;8.598;2023-03-31T01:54:43;3.17;;;1.40;;
6665;SDS011;3369;49.906;8.598;2023-03-31T01:57:32;8.27;;;1.67;;
6665;SDS011;3369;49.906;8.598;2023-03-31T02:02:41;3.80;;;2.10;;
6665;SDS011;3369;49.906;8.598;2023-03-31T02:05:09;4.37;;;1.80;;
6665;SDS011;3369;49.906;8.598;2023-03-31T02:07:45;4.80;;;1.73;;
6665;SDS011;3369;49.906;8.598;2023-03-31T02:10:17;4.73;;;2.23;;
6665;SDS011;3369;49.906;8.598;2023-03-31T02:12:45;7.53;;;1.83;;
6665;SDS011;3369;49.906;8.598;2023-03-31T02:15:14;4.00;;;1.90;;
6665;SDS011;3369;49.906;8.598;2023-03-31T02:17:46;4.03;;;2.40;;
6665;SDS011;3369;49.906;8.598;2023-03-31T02:20:16;3.13;;;1.80;;
6665;SDS011;3369;49.906;8.598;2023-03-31T02:22:45;5.70;;;1.90;;
6665;SDS011;3369;49.906;8.598;2023-03-31T02:25:16;7.90;;;2.03;;
6665;SDS011;3369;49.906;8.598;2023-03-31T02:27:47;6.03;;;1.93;;
6665;SDS011;3369;49.906;8.598;2023-03-31T02:30:17;3.80;;;1.80;;
6665;SDS011;3369;49.906;8.598;2023-03-31T02:32:43;7.73;;;1.80;;
6665;SDS011;3369;49.906;8.598;2023-03-31T02:35:17;5.23;;;1.87;;
6665;SDS011;3369;49.906;8.598;2023-03-31T02:37:44;5.33;;;1.60;;
6665;SDS011;3369;49.906;8.598;2023-03-31T02:40:15;6.60;;;1.97;;
6665;SDS011;3369;49.906;8.598;2023-03-31T02:42:45;2.77;;;1.40;;
6665;SDS011;3369;49.906;8.598;2023-03-31T02:48:00;5.73;;;2.10;;
6665;SDS011;3369;49.906;8.598;2023-03-31T02:50:28;7.03;;;2.40;;
6665;SDS011;3369;49.906;8.598;2023-03-31T02:53:50;9.53;;;2.47;;
6665;SDS011;3369;49.906;8.598;2023-03-31T03:02:01;8.70;;;2.10;;
6665;SDS011;3369;49.906;8.598;2023-03-31T03:15:22;6.50;;;2.23;;
6665;SDS011;3369;49.906;8.598;2023-03-31T03:18:06;6.47;;;1.67;;
6665;SDS011;3369;49.906;8.598;2023-03-31T03:20:32;7.53;;;2.57;;
6665;SDS011;3369;49.906;8.598;2023-03-31T03:22:58;3.83;;;1.70;;
6665;SDS011;3369;49.906;8.598;2023-03-31T03:25:24;6.87;;;2.20;;
6665;SDS011;3369;49.906;8.598;2023-03-31T03:27:49;6.27;;;1.90;;
6665;SDS011;3369;49.906;8.598;2023-03-31T03:30:17;6.80;;;2.33;;
6665;SDS011;3369;49.906;8.598;2023-03-31T03:32:43;6.57;;;2.30;;
6665;SDS011;3369;49.906;8.598;2023-03-31T03:35:09;7.53;;;1.93;;
6665;SDS011;3369;49.906;8.598;2023-03-31T03:37:35;4.87;;;1.97;;
6665;SDS011;3369;49.906;8.598;2023-03-31T03:40:01;5.00;;;1.90;;
6665;SDS011;3369;49.906;8.598;2023-03-31T03:42:29;6.90;;;1.50;;
6665;SDS011;3369;49.906;8.598;2023-03-31T03:44:55;4.73;;;1.80;;
6665;SDS011;3369;49.906;8.598;2023-03-31T03:47:21;4.30;;;2.03;;
6665;SDS011;3369;49.906;8.598;2023-03-31T03:49:46;4.50;;;1.60;;
6665;SDS011;3369;49.906;8.598;2023-03-31T03:52:13;3.60;;;1.47;;
6665;SDS011;3369;49.906;8.598;2023-03-31T03:54:39;5.57;;;1.77;;
6665;SDS011;3369;49.906;8.598;2023-03-31T03:57:05;6.47;;;2.20;;
6665;SDS011;3369;49.906;8.598;2023-03-31T03:59:31;5.30;;;2.30;;
6665;SDS011;3369;49.906;8.598;2023-03-31T04:01:57;6.20;;;1.70;;
6665;SDS011;3369;49.906;8.598;2023-03-31T04:04:22;3.93;;;2.23;;
6665;SDS011;3369;49.906;8.598;2023-03-31T04:06:48;6.03;;;1.77;;
6665;SDS011;3369;49.906;8.598;2023-03-31T04:09:14;6.13;;;2.13;;
6665;SDS011;3369;49.906;8.598;2023-03-31T04:11:40;7.83;;;2.03;;
6665;SDS011;3369;49.906;8.598;2023-03-31T04:14:05;7.47;;;1.90;;
6665;SDS011;3369;49.906;8.598;2023-03-31T04:16:31;5.10;;;1.60;;
6665;SDS011;3369;49.906;8.598;2023-03-31T04:18:58;5.53;;;1.80;;
6665;SDS011;3369;49.906;8.598;2023-03-31T04:21:27;6.67;;;1.90;;
6665;SDS011;3369;49.906;8.598;2023-03-31T04:23:54;4.40;;;1.73;;
6665;SDS011;3369;49.906;8.598;2023-03-31T04:26:25;4.80;;;1.73;;
6665;SDS011;3369;49.906;8.598;2023-03-31T04:29:02;4.23;;;1.53;;
6665;SDS011;3369;49.906;8.598;2023-03-31T04:31:30;7.22;;;1.85;;
6665;SDS011;3369;49.906;8.598;2023-03-31T04:33:55;6.47;;;1.93;;
6665;SDS011;3369;49.906;8.598;2023-03-31T04:36:26;4.20;;;1.93;;
6665;SDS011;3369;49.906;8.598;2023-03-31T04:38:53;3.97;;;1.50;;
6665;SDS011;3369;49.906;8.598;2023-03-31T04:41:19;6.77;;;1.67;;
6665;SDS011;3369;49.906;8.598;2023-03-31T04:43:46;4.00;;;1.80;;
6665;SDS011;3369;49.906;8.598;2023-03-31T04:46:12;5.60;;;1.60;;
6665;SDS011;3369;49.906;8.598;2023-03-31T04:48:38;6.07;;;2.17;;
6665;SDS011;3369;49.906;8.598;2023-03-31T04:51:03;2.67;;;1.60;;
6665;SDS011;3369;49.906;8.598;2023-03-31T04:53:30;5.57;;;1.77;;
6665;SDS011;3369;49.906;8.598;2023-03-31T04:55:56;5.83;;;1.70;;
6665;SDS011;3369;49.906;8.598;2023-03-31T04:58:21;6.37;;;2.43;;
6665;SDS011;3369;49.906;8.598;2023-03-31T05:00:47;5.43;;;1.60;;
6665;SDS011;3369;49.906;8.598;2023-03-31T05:03:13;2.97;;;1.47;;
6665;SDS011;3369;49.906;8.598;2023-03-31T05:05:38;7.13;;;2.00;;
6665;SDS011;3369;49.906;8.598;2023-03-31T05:08:04;10.47;;;2.40;;
6665;SDS011;3369;49.906;8.598;2023-03-31T05:10:30;6.73;;;2.17;;
6665;SDS011;3369;49.906;8.598;2023-03-31T05:12:56;7.97;;;2.10;;
6665;SDS011;3369;49.906;8.598;2023-03-31T05:15:22;4.37;;;1.67;;
6665;SDS011;3369;49.906;8.598;2023-03-31T05:17:48;6.03;;;1.83;;
6665;SDS011;3369;49.906;8.598;2023-03-31T05:20:14;3.57;;;1.90;;
6665;SDS011;3369;49.906;8.598;2023-03-31T05:22:40;8.63;;;1.97;;
6665;SDS011;3369;49.906;8.598;2023-03-31T05:25:06;7.70;;;2.33;;
6665;SDS011;3369;49.906;8.598;2023-03-31T05:27:33;7.30;;;2.17;;
6665;SDS011;3369;49.906;8.598;2023-03-31T05:30:00;2.53;;;1.60;;
6665;SDS011;3369;49.906;8.598;2023-03-31T05:32:26;4.53;;;2.17;;
6665;SDS011;3369;49.906;8.598;2023-03-31T05:34:52;6.07;;;2.37;;
6665;SDS011;3369;49.906;8.598;2023-03-31T05:37:24;5.77;;;1.93;;
6665;SDS011;3369;49.906;8.598;2023-03-31T05:39:50;4.00;;;1.63;;
6665;SDS011;3369;49.906;8.598;2023-03-31T05:42:16;7.93;;;2.27;;
6665;SDS011;3369;49.906;8.598;2023-03-31T05:44:43;7.97;;;2.13;;
6665;SDS011;3369;49.906;8.598;2023-03-31T05:47:08;5.10;;;1.63;;
6665;SDS011;3369;49.906;8.598;2023-03-31T05:49:34;6.07;;;1.90;;
6665;SDS011;3369;49.906;8.598;2023-03-31T05:52:00;8.63;;;2.53;;
6665;SDS011;3369;49.906;8.598;2023-03-31T05:54:26;8.07;;;2.30;;
6665;SDS011;3369;49.906;8.598;2023-03-31T05:56:51;7.10;;;2.97;;
6665;SDS011;3369;49.906;8.598;2023-03-31T05:59:17;7.03;;;2.10;;
6665;SDS011;3369;49.906;8.598;2023-03-31T06:01:43;7.33;;;2.60;;
6665;SDS011;3369;49.906;8.598;2023-03-31T06:04:08;7.33;;;2.43;;
6665;SDS011;3369;49.906;8.598;2023-03-31T06:06:34;5.23;;;2.07;;
6665;SDS011;3369;49.906;8.598;2023-03-31T06:09:02;10.97;;;3.20;;
6665;SDS011;3369;49.906;8.598;2023-03-31T06:11:28;10.43;;;2.50;;
6665;SDS011;3369;49.906;8.598;2023-03-31T06:13:54;6.90;;;2.50;;
6665;SDS011;3369;49.906;8.598;2023-03-31T06:16:19;5.87;;;3.67;;
6665;SDS011;3369;49.906;8.598;2023-03-31T06:18:45;11.17;;;3.20;;
6665;SDS011;3369;49.906;8.598;2023-03-31T06:21:15;6.73;;;2.47;;
6665;SDS011;3369;49.906;8.598;2023-03-31T06:23:42;8.43;;;2.60;;
6665;SDS011;3369;49.906;8.598;2023-03-31T06:26:17;7.33;;;3.20;;
6665;SDS011;3369;49.906;8.598;2023-03-31T06:28:44;7.57;;;2.83;;
6665;SDS011;3369;49.906;8.598;2023-03-31T06:31:12;13.27;;;2.97;;
6665;SDS011;3369;49.906;8.598;2023-03-31T06:33:42;12.10;;;3.67;;
6665;SDS011;3369;49.906;8.598;2023-03-31T06:36:09;8.00;;;3.13;;
6665;SDS011;3369;49.906;8.598;2023-03-31T06:38:37;5.90;;;2.90;;
6665;SDS011;3369;49.906;8.598;2023-03-31T06:41:03;6.37;;;3.30;;
6665;SDS011;3369;49.906;8.598;2023-03-31T06:43:32;7.23;;;2.97;;
6665;SDS011;3369;49.906;8.598;2023-03-31T06:45:58;11.80;;;3.83;;
6665;SDS011;3369;49.906;8.598;2023-03-31T06:48:25;8.63;;;3.27;;
6665;SDS011;3369;49.906;8.598;2023-03-31T06:50:52;6.90;;;3.57;;
6665;SDS011;3369;49.906;8.598;2023-03-31T07:13:12;9.20;;;4.67;;
6665;SDS011;3369;49.906;8.598;2023-03-31T07:15:38;7.17;;;4.47;;
6665;SDS011;3369;49.906;8.598;2023-03-31T07:18:03;7.67;;;3.83;;
6665;SDS011;3369;49.906;8.598;2023-03-31T07:20:29;7.97;;;4.53;;
6665;SDS011;3369;49.906;8.598;2023-03-31T07:22:56;7.90;;;4.03;;
6665;SDS011;3369;49.906;8.598;2023-03-31T07:25:22;8.13;;;4.33;;
6665;SDS011;3369;49.906;8.598;2023-03-31T07:27:48;7.47;;;4.10;;
6665;SDS011;3369;49.906;8.598;2023-03-31T07:30:15;9.27;;;3.70;;
6665;SDS011;3369;49.906;8.598;2023-03-31T07:32:42;7.07;;;3.70;;
6665;SDS011;3369;49.906;8.598;2023-03-31T07:35:10;8.67;;;4.07;;
6665;SDS011;3369;49.906;8.598;2023-03-31T07:37:43;8.53;;;3.87;;
6665;SDS011;3369;49.906;8.598;2023-03-31T07:40:12;9.27;;;4.30;;
6665;SDS011;3369;49.906;8.598;2023-03-31T07:42:43;12.73;;;5.30;;
6665;SDS011;3369;49.906;8.598;2023-03-31T07:45:11;7.97;;;4.20;;
6665;SDS011;3369;49.906;8.598;2023-03-31T07:47:36;5.63;;;4.00;;
6665;SDS011;3369;49.906;8.598;2023-03-31T07:50:04;10.83;;;4.30;;
6665;SDS011;3369;49.906;8.598;2023-03-31T07:52:30;6.80;;;4.07;;
6665;SDS011;3369;49.906;8.598;2023-03-31T07:54:56;8.50;;;4.23;;
6665;SDS011;3369;49.906;8.598;2023-03-31T07:57:21;11.00;;;4.77;;
6665;SDS011;3369;49.906;8.598;2023-03-31T07:59:47;7.27;;;4.00;;
6665;SDS011;3369;49.906;8.598;2023-03-31T08:02:14;9.77;;;4.60;;
6665;SDS011;3369;49.906;8.598;2023-03-31T08:04:41;6.27;;;4.17;;
6665;SDS011;3369;49.906;8.598;2023-03-31T08:07:08;7.63;;;3.77;;
6665;SDS011;3369;49.906;8.598;2023-03-31T08:09:35;7.10;;;4.10;;
6665;SDS011;3369;49.906;8.598;2023-03-31T08:12:01;7.23;;;3.83;;
6665;SDS011;3369;49.906;8.598;2023-03-31T08:14:27;7.37;;;3.80;;
6665;SDS011;3369;49.906;8.598;2023-03-31T08:16:53;9.20;;;3.70;;
6665;SDS011;3369;49.906;8.598;2023-03-31T08:19:19;4.73;;;2.70;;
6665;SDS011;3369;49.906;8.598;2023-03-31T08:21:46;3.20;;;2.80;;
6665;SDS011;3369;49.906;8.598;2023-03-31T08:24:12;4.50;;;2.53;;
6665;SDS011;3369;49.906;8.598;2023-03-31T08:26:39;4.13;;;2.43;;
6665;SDS011;3369;49.906;8.598;2023-03-31T08:29:05;2.97;;;2.27;;
6665;SDS011;3369;49.906;8.598;2023-03-31T08:31:31;4.20;;;2.20;;
6665;SDS011;3369;49.906;8.598;2023-03-31T08:33:57;2.47;;;1.80;;
6665;SDS011;3369;49.906;8.598;2023-03-31T08:36:23;3.80;;;1.80;;
6665;SDS011;3369;49.906;8.598;2023-03-31T08:38:49;2.40;;;2.20;;
6665;SDS011;3369;49.906;8.598;2023-03-31T08:44:10;5.27;;;2.40;;
6665;SDS011;3369;49.906;8.598;2023-03-31T08:46:45;2.87;;;2.20;;
6665;SDS011;3369;49.906;8.598;2023-03-31T08:49:15;2.93;;;2.00;;
6665;SDS011;3369;49.906;8.598;2023-03-31T08:51:48;5.03;;;2.13;;
6665;SDS011;3369;49.906;8.598;2023-03-31T08:54:20;4.20;;;2.07;;
6665;SDS011;3369;49.906;8.598;2023-03-31T08:56:58;4.03;;;2.23;;
6665;SDS011;3369;49.906;8.598;2023-03-31T09:01:55;3.80;;;2.20;;
6665;SDS011;3369;49.906;8.598;2023-03-31T09:07:15;4.53;;;2.47;;
6665;SDS011;3369;49.906;8.598;2023-03-31T09:09:51;3.83;;;2.20;;
6665;SDS011;3369;49.906;8.598;2023-03-31T09:15:10;5.27;;;2.43;;
6665;SDS011;3369;49.906;8.598;2023-03-31T09:17:56;5.67;;;2.77;;
6665;SDS011;3369;49.906;8.598;2023-03-31T09:20:40;4.53;;;2.40;;
6665;SDS011;3369;49.906;8.598;2023-03-31T09:26:00;6.03;;;3.17;;
6665;SDS011;3369;49.906;8.598;2023-03-31T09:28:33;6.23;;;3.00;;
6665;SDS011;3369;49.906;8.598;2023-03-31T09:31:03;6.57;;;2.90;;
6665;SDS011;3369;49.906;8.598;2023-03-31T09:33:41;3.97;;;2.70;;
6665;SDS011;3369;49.906;8.598;2023-03-31T09:38:44;8.30;;;2.70;;
6665;SDS011;3369;49.906;8.598;2023-03-31T09:41:11;3.60;;;2.27;;
6665;SDS011;3369;49.906;8.598;2023-03-31T09:43:40;5.87;;;2.23;;
6665;SDS011;3369;49.906;8.598;2023-03-31T09:46:28;4.80;;;2.27;;
6665;SDS011;3369;49.906;8.598;2023-03-31T09:48:59;6.03;;;3.30;;
6665;SDS011;3369;49.906;8.598;2023-03-31T09:51:31;5.40;;;2.53;;
6665;SDS011;3369;49.906;8.598;2023-03-31T09:56:50;8.40;;;3.47;;
6665;SDS011;3369;49.906;8.598;2023-03-31T09:59:19;6.97;;;3.07;;
6665;SDS011;3369;49.906;8.598;2023-03-31T10:01:51;4.77;;;2.33;;
6665;SDS011;3369;49.906;8.598;2023-03-31T10:06:48;3.70;;;1.73;;
6665;SDS011;3369;49.906;8.598;2023-03-31T10:09:16;5.30;;;1.67;;
6665;SDS011;3369;49.906;8.598;2023-03-31T10:11:53;3.43;;;1.97;;
6665;SDS011;3369;49.906;8.598;2023-03-31T10:14:25;4.27;;;1.67;;
6665;SDS011;3369;49.906;8.598;2023-03-31T10:16:57;5.03;;;1.80;;
6665;SDS011;3369;49.906;8.598;2023-03-31T10:19:27;4.27;;;1.53;;
6665;SDS011;3369;49.906;8.598;2023-03-31T10:24:25;2.63;;;1.27;;
6665;SDS011;3369;49.906;8.598;2023-03-31T10:27:01;2.83;;;1.60;;
6665;SDS011;3369;49.906;8.598;2023-03-31T10:29:29;2.20;;;1.00;;
6665;SDS011;3369;49.906;8.598;2023-03-31T10:32:30;3.00;;;1.20;;
6665;SDS011;3369;49.906;8.598;2023-03-31T10:34:53;7.30;;;1.63;;
6665;SDS011;3369;49.906;8.598;2023-03-31T10:37:21;4.00;;;1.50;;
6665;SDS011;3369;49.906;8.598;2023-03-31T10:39:56;6.90;;;1.50;;
6665;SDS011;3369;49.906;8.598;2023-03-31T10:42:24;3.43;;;1.30;;
6665;SDS011;3369;49.906;8.598;2023-03-31T10:45:11;3.57;;;1.70;;
6665;SDS011;3369;49.906;8.598;2023-03-31T10:47:45;4.97;;;1.90;;
6665;SDS011;3369;49.906;8.598;2023-03-31T10:50:14;3.97;;;1.53;;
6665;SDS011;3369;49.906;8.598;2023-03-31T10:52:44;3.57;;;1.60;;
6665;SDS011;3369;49.906;8.598;2023-03-31T10:55:13;3.73;;;1.50;;
6665;SDS011;3369;49.906;8.598;2023-03-31T11:00:34;3.60;;;1.50;;
6665;SDS011;3369;49.906;8.598;2023-03-31T11:06:26;5.37;;;1.40;;
6665;SDS011;3369;49.906;8.598;2023-03-31T11:09:45;3.83;;;1.60;;
6665;SDS011;3369;49.906;8.598;2023-03-31T11:17:36;4.43;;;1.77;;
6665;SDS011;3369;49.906;8.598;2023-03-31T11:25:38;5.27;;;1.60;;
6665;SDS011;3369;49.906;8.598;2023-03-31T11:31:08;6.13;;;1.60;;
6665;SDS011;3369;49.906;8.598;2023-03-31T11:42:04;6.97;;;2.00;;
6665;SDS011;3369;49.906;8.598;2023-03-31T11:44:49;7.57;;;2.40;;
6665;SDS011;3369;49.906;8.598;2023-03-31T11:47:20;6.27;;;2.30;;
6665;SDS011;3369;49.906;8.598;2023-03-31T11:49:56;6.50;;;2.03;;
6665;SDS011;3369;49.906;8.598;2023-03-31T11:52:33;7.27;;;2.70;;
6665;SDS011;3369;49.906;8.598;2023-03-31T11:58:14;6.27;;;2.20;;
6665;SDS011;3369;49.906;8.598;2023-03-31T12:03:20;9.07;;;2.93;;
6665;SDS011;3369;49.906;8.598;2023-03-31T12:05:52;7.33;;;2.10;;
6665;SDS011;3369;49.906;8.598;2023-03-31T12:08:29;10.33;;;2.43;;
6665;SDS011;3369;49.906;8.598;2023-03-31T12:11:10;11.17;;;2.20;;
6665;SDS011;3369;49.906;8.598;2023-03-31T12:16:39;11.93;;;2.47;;
6665;SDS011;3369;49.906;8.598;2023-03-31T12:19:17;8.40;;;2.60;;
6665;SDS011;3369;49.906;8.598;2023-03-31T12:24:37;10.00;;;2.97;;
6665;SDS011;3369;49.906;8.598;2023-03-31T12:29:50;8.60;;;2.50;;
6665;SDS011;3369;49.906;8.598;2023-03-31T12:32:43;9.60;;;2.37;;
6665;SDS011;3369;49.906;8.598;2023-03-31T12:41:23;7.20;;;2.00;;
6665;SDS011;3369;49.906;8.598;2023-03-31T12:51:58;5.90;;;1.60;;
6665;SDS011;3369;49.906;8.598;2023-03-31T12:57:25;6.73;;;1.80;;
6665;SDS011;3369;49.906;8.598;2023-03-31T13:02:38;6.63;;;1.70;;
6665;SDS011;3369;49.906;8.598;2023-03-31T13:08:02;4.37;;;1.33;;
6665;SDS011;3369;49.906;8.598;2023-03-31T13:30:00;3.03;;;1.03;;
6665;SDS011;3369;49.906;8.598;2023-03-31T13:32:26;1.73;;;0.87;;
6665;SDS011;3369;49.906;8.598;2023-03-31T13:38:03;0.47;;;0.47;;
6665;SDS011;3369;49.906;8.598;2023-03-31T13:40:29;0.87;;;0.60;;
6665;SDS011;3369;49.906;8.598;2023-03-31T13:43:24;1.33;;;0.50;;
6665;SDS011;3369;49.906;8.598;2023-03-31T13:52:12;1.07;;;0.60;;
6665;SDS011;3369;49.906;8.598;2023-03-31T13:54:58;0.40;;;0.40;;
6665;SDS011;3369;49.906;8.598;2023-03-31T14:00:51;1.03;;;0.60;;
6665;SDS011;3369;49.906;8.598;2023-03-31T14:09:23;0.80;;;0.63;;
6665;SDS011;3369;49.906;8.598;2023-03-31T14:11:59;0.80;;;0.70;;
6665;SDS011;3369;49.906;8.598;2023-03-31T14:14:26;0.60;;;0.53;;
6665;SDS011;3369;49.906;8.598;2023-03-31T14:16:57;1.07;;;0.63;;
6665;SDS011;3369;49.906;8.598;2023-03-31T14:28:09;1.67;;;0.67;;
6665;SDS011;3369;49.906;8.598;2023-03-31T14:39:27;2.33;;;1.00;;
6665;SDS011;3369;49.906;8.598;2023-03-31T14:41:58;1.90;;;0.90;;
6665;SDS011;3369;49.906;8.598;2023-03-31T14:44:28;2.97;;;1.30;;
6665;SDS011;3369;49.906;8.598;2023-03-31T14:46:55;2.83;;;1.13;;
6665;SDS011;3369;49.906;8.598;2023-03-31T14:51:52;4.87;;;1.50;;
6665;SDS011;3369;49.906;8.598;2023-03-31T14:54:22;2.53;;;1.20;;
6665;SDS011;3369;49.906;8.598;2023-03-31T14:56:54;3.67;;;1.10;;
6665;SDS011;3369;49.906;8.598;2023-03-31T14:59:27;5.13;;;1.13;;
6665;SDS011;3369;49.906;8.598;2023-03-31T15:01:58;2.60;;;1.20;;
6665;SDS011;3369;49.906;8.598;2023-03-31T15:04:27;6.97;;;1.20;;
6665;SDS011;3369;49.906;8.598;2023-03-31T15:06:55;3.40;;;1.30;;
6665;SDS011;3369;49.906;8.598;2023-03-31T15:09:28;4.00;;;1.40;;
6665;SDS011;3369;49.906;8.598;2023-03-31T15:11:58;2.37;;;1.17;;
6665;SDS011;3369;49.906;8.598;2023-03-31T15:14:28;3.90;;;1.33;;
6665;SDS011;3369;49.906;8.598;2023-03-31T15:16:59;4.17;;;1.47;;
6665;SDS011;3369;49.906;8.598;2023-03-31T15:19:26;5.13;;;1.33;;
6665;SDS011;3369;49.906;8.598;2023-03-31T15:21:56;3.80;;;1.10;;
6665;SDS011;3369;49.906;8.598;2023-03-31T15:24:29;4.17;;;1.20;;
6665;SDS011;3369;49.906;8.598;2023-03-31T15:26:58;3.83;;;1.23;;
6665;SDS011;3369;49.906;8.598;2023-03-31T15:32:03;2.10;;;1.20;;
6665;SDS011;3369;49.906;8.598;2023-03-31T15:34:35;3.63;;;1.30;;
6665;SDS011;3369;49.906;8.598;2023-03-31T15:37:01;3.53;;;0.80;;
6665;SDS011;3369;49.906;8.598;2023-03-31T15:39:31;2.97;;;1.13;;
6665;SDS011;3369;49.906;8.598;2023-03-31T15:41:59;4.53;;;0.87;;
6665;SDS011;3369;49.906;8.598;2023-03-31T15:47:11;4.27;;;1.27;;
6665;SDS011;3369;49.906;8.598;2023-03-31T15:49:45;2.10;;;0.83;;
6665;SDS011;3369;49.906;8.598;2023-03-31T15:52:29;3.33;;;0.83;;
6665;SDS011;3369;49.906;8.598;2023-03-31T15:54:58;2.33;;;0.90;;
6665;SDS011;3369;49.906;8.598;2023-03-31T15:57:34;2.73;;;1.00;;
6665;SDS011;3369;49.906;8.598;2023-03-31T16:00:00;3.50;;;1.43;;
6665;SDS011;3369;49.906;8.598;2023-03-31T16:02:41;3.57;;;1.17;;
6665;SDS011;3369;49.906;8.598;2023-03-31T16:08:20;1.47;;;0.77;;
6665;SDS011;3369;49.906;8.598;2023-03-31T16:11:04;4.23;;;1.20;;
6665;SDS011;3369;49.906;8.598;2023-03-31T16:13:44;1.57;;;0.90;;
6665;SDS011;3369;49.906;8.598;2023-03-31T16:16:18;2.37;;;0.70;;
6665;SDS011;3369;49.906;8.598;2023-03-31T16:18:46;3.23;;;0.90;;
6665;SDS011;3369;49.906;8.598;2023-03-31T16:21:19;5.23;;;1.10;;
6665;SDS011;3369;49.906;8.598;2023-03-31T16:23:53;3.13;;;0.90;;
6665;SDS011;3369;49.906;8.598;2023-03-31T16:26:22;2.17;;;0.90;;
6665;SDS011;3369;49.906;8.598;2023-03-31T16:28:50;2.37;;;1.23;;
6665;SDS011;3369;49.906;8.598;2023-03-31T16:31:31;5.60;;;1.40;;
6665;SDS011;3369;49.906;8.598;2023-03-31T16:34:04;4.47;;;1.50;;
6665;SDS011;3369;49.906;8.598;2023-03-31T16:36:36;2.97;;;1.33;;
6665;SDS011;3369;49.906;8.598;2023-03-31T16:39:02;4.70;;;1.57;;
6665;SDS011;3369;49.906;8.598;2023-03-31T16:41:32;5.20;;;1.50;;
6665;SDS011;3369;49.906;8.598;2023-03-31T16:43:59;4.97;;;1.30;;
6665;SDS011;3369;49.906;8.598;2023-03-31T16:46:25;5.17;;;1.23;;
6665;SDS011;3369;49.906;8.598;2023-03-31T16:48:51;4.57;;;1.47;;
6665;SDS011;3369;49.906;8.598;2023-03-31T16:51:17;3.30;;;1.33;;
6665;SDS011;3369;49.906;8.598;2023-03-31T16:53:44;3.93;;;1.10;;
6665;SDS011;3369;49.906;8.598;2023-03-31T16:56:11;8.07;;;1.93;;
6665;SDS011;3369;49.906;8.598;2023-03-31T16:58:38;3.67;;;1.70;;
6665;SDS011;3369;49.906;8.598;2023-03-31T17:01:04;2.67;;;1.53;;
6665;SDS011;3369;49.906;8.598;2023-03-31T17:03:31;5.90;;;1.77;;
6665;SDS011;3369;49.906;8.598;2023-03-31T17:05:57;8.23;;;1.80;;
6665;SDS011;3369;49.906;8.598;2023-03-31T17:08:29;2.03;;;1.13;;
6665;SDS011;3369;49.906;8.598;2023-03-31T17:11:16;4.60;;;1.40;;
6665;SDS011;3369;49.906;8.598;2023-03-31T17:13:41;3.47;;;1.30;;
6665;SDS011;3369;49.906;8.598;2023-03-31T17:16:08;7.13;;;2.27;;
6665;SDS011;3369;49.906;8.598;2023-03-31T17:18:35;3.37;;;1.50;;
6665;SDS011;3369;49.906;8.598;2023-03-31T17:21:02;5.63;;;1.50;;
6665;SDS011;3369;49.906;8.598;2023-03-31T17:23:33;2.43;;;1.30;;
6665;SDS011;3369;49.906;8.598;2023-03-31T17:26:00;2.67;;;1.30;;
6665;SDS011;3369;49.906;8.598;2023-03-31T17:28:28;6.50;;;1.50;;
6665;SDS011;3369;49.906;8.598;2023-03-31T17:30:55;3.43;;;1.50;;
6665;SDS011;3369;49.906;8.598;2023-03-31T17:33:21;6.00;;;1.30;;
6665;SDS011;3369;49.906;8.598;2023-03-31T17:35:47;3.03;;;1.27;;
6665;SDS011;3369;49.906;8.598;2023-03-31T17:38:14;3.43;;;1.20;;
6665;SDS011;3369;49.906;8.598;2023-03-31T17:40:40;4.43;;;1.40;;
6665;SDS011;3369;49.906;8.598;2023-03-31T17:43:05;5.13;;;1.60;;
6665;SDS011;3369;49.906;8.598;2023-03-31T17:45:31;4.80;;;1.53;;
6665;SDS011;3369;49.906;8.598;2023-03-31T17:47:58;3.03;;;1.40;;
6665;SDS011;3369;49.906;8.598;2023-03-31T17:50:25;3.27;;;1.47;;
6665;SDS011;3369;49.906;8.598;2023-03-31T17:52:51;3.87;;;1.57;;
6665;SDS011;3369;49.906;8.598;2023-03-31T17:55:17;4.80;;;1.83;;
6665;SDS011;3369;49.906;8.598;2023-03-31T17:57:43;4.13;;;1.67;;
6665;SDS011;3369;49.906;8.598;2023-03-31T18:00:10;5.77;;;1.93;;
6665;SDS011;3369;49.906;8.598;2023-03-31T18:02:39;4.00;;;1.40;;
6665;SDS011;3369;49.906;8.598;2023-03-31T18:05:06;5.10;;;1.50;;
6665;SDS011;3369;49.906;8.598;2023-03-31T18:07:33;5.03;;;2.30;;
6665;SDS011;3369;49.906;8.598;2023-03-31T18:10:00;3.87;;;1.17;;
6665;SDS011;3369;49.906;8.598;2023-03-31T18:12:29;5.80;;;1.70;;
6665;SDS011;3369;49.906;8.598;2023-03-31T18:14:56;6.53;;;1.93;;
6665;SDS011;3369;49.906;8.598;2023-03-31T18:17:22;5.97;;;1.77;;
6665;SDS011;3369;49.906;8.598;2023-03-31T18:19:48;5.90;;;1.90;;
6665;SDS011;3369;49.906;8.598;2023-03-31T18:22:13;5.73;;;2.20;;
6665;SDS011;3369;49.906;8.598;2023-03-31T18:24:39;4.85;;;1.75;;
6665;SDS011;3369;49.906;8.598;2023-03-31T18:27:05;5.57;;;1.50;;
6665;SDS011;3369;49.906;8.598;2023-03-31T18:29:31;4.60;;;1.50;;
6665;SDS011;3369;49.906;8.598;2023-03-31T18:31:57;3.23;;;1.50;;
6665;SDS011;3369;49.906;8.598;2023-03-31T18:34:23;5.20;;;1.37;;
6665;SDS011;3369;49.906;8.598;2023-03-31T18:36:49;4.17;;;1.57;;
6665;SDS011;3369;49.906;8.598;2023-03-31T18:39:15;2.90;;;1.10;;
6665;SDS011;3369;49.906;8.598;2023-03-31T18:41:41;2.07;;;1.30;;
6665;SDS011;3369;49.906;8.598;2023-03-31T18:44:10;2.57;;;1.00;;
6665;SDS011;3369;49.906;8.598;2023-03-31T18:46:40;5.00;;;1.47;;
6665;SDS011;3369;49.906;8.598;2023-03-31T18:49:06;2.10;;;0.80;;
6665;SDS011;3369;49.906;8.598;2023-03-31T18:51:32;2.30;;;1.13;;
6665;SDS011;3369;49.906;8.598;2023-03-31T18:53:57;3.17;;;1.10;;
6665;SDS011;3369;49.906;8.598;2023-03-31T18:56:23;5.03;;;1.47;;
6665;SDS011;3369;49.906;8.598;2023-03-31T18:58:49;2.07;;;1.13;;
6665;SDS011;3369;49.906;8.598;2023-03-31T19:01:15;4.30;;;1.10;;
6665;SDS011;3369;49.906;8.598;2023-03-31T19:03:41;2.73;;;1.17;;
6665;SDS011;3369;49.906;8.598;2023-03-31T19:06:08;2.97;;;1.33;;
6665;SDS011;3369;49.906;8.598;2023-03-31T19:29:49;3.37;;;1.10;;
6665;SDS011;3369;49.906;8.598;2023-03-31T19:32:14;4.30;;;1.50;;
6665;SDS011;3369;49.906;8.598;2023-03-31T19:34:41;3.40;;;1.37;;
6665;SDS011;3369;49.906;8.598;2023-03-31T19:37:07;4.73;;;1.13;;
6665;SDS011;3369;49.906;8.598;2023-03-31T19:39:33;6.70;;;1.30;;
6665;SDS011;3369;49.906;8.598;2023-03-31T19:41:59;2.97;;;1.20;;
6665;SDS011;3369;49.906;8.598;2023-03-31T19:44:26;8.57;;;2.27;;
6665;SDS011;3369;49.906;8.598;2023-03-31T19:46:53;3.77;;;1.00;;
6665;SDS011;3369;49.906;8.598;2023-03-31T19:49:18;5.27;;;1.60;;
6665;SDS011;3369;49.906;8.598;2023-03-31T19:51:45;2.13;;;1.30;;
6665;SDS011;3369;49.906;8.598;2023-03-31T19:54:11;4.87;;;1.53;;